Time;durP1;ratioP1;P1;durP2;ratioP2;P2;SDS_P1;SDS_P2;PMS_P1;PMS_P2;Temp;Humidity;BMP_temperature;BMP_pressure;BME280_temperature;BME280_humidity;BME280_pressure;Samples;Min_cycle;Max_cycle;Signal;HPM_P1;HPM_P2
2021/01/14 00:00:38;;;;;;;16.20;10.00;;;;;;;-0.84;73.12;98381.79;1739416;82;21179;-71
2021/01/14 00:03:08;;;;;;;15.80;12.07;;;;;;;-0.83;73.27;98383.92;1739838;82;21133;-71
2021/01/14 00:05:36;;;;;;;17.67;11.70;;;;;;;-0.82;73.32;98372.36;1739815;82;21630;-72
2021/01/14 00:08:06;;;;;;;15.67;11.63;;;;;;;-0.81;73.34;98374.77;1730363;82;21057;-72
2021/01/14 00:10:36;;;;;;;19.33;12.47;;;;;;;-0.79;73.39;98367.45;1709856;84;21105;-71
2021/01/14 00:13:08;;;;;;;17.70;10.67;;;;;;;-0.77;73.39;98372.03;1728625;82;21137;-71
2021/01/14 00:15:36;;;;;;;25.43;13.43;;;;;;;-0.73;73.44;98374.55;1739951;82;21598;-71
2021/01/14 00:18:05;;;;;;;14.77;10.10;;;;;;;-0.71;73.37;98370.36;1731039;82;21633;-72
2021/01/14 00:20:32;;;;;;;20.20;12.13;;;;;;;-0.70;73.28;98368.84;1716070;82;21577;-71
2021/01/14 00:22:59;;;;;;;18.10;12.23;;;;;;;-0.69;73.20;98369.14;1739821;82;21128;-72
2021/01/14 00:25:27;;;;;;;18.10;11.63;;;;;;;-0.69;73.02;98357.77;1739929;82;21137;-72
2021/01/14 00:27:55;;;;;;;17.73;11.83;;;;;;;-0.68;72.99;98362.04;1739473;82;21124;-71
2021/01/14 00:30:28;;;;;;;14.13;11.27;;;;;;;-0.66;72.87;98365.26;1739416;82;22564;-72
2021/01/14 00:33:00;;;;;;;19.62;12.70;;;;;;;-0.63;72.82;98359.07;1739560;82;21208;-70
2021/01/14 00:35:28;;;;;;;15.80;12.15;;;;;;;-0.65;72.63;98354.50;1739800;82;21096;-70
2021/01/14 00:37:56;;;;;;;17.20;11.67;;;;;;;-0.67;72.71;98351.78;1739903;82;21247;-71
2021/01/14 00:40:28;;;;;;;20.17;12.33;;;;;;;-0.66;72.65;98353.38;1739526;81;21152;-71
2021/01/14 00:43:02;;;;;;;17.63;13.17;;;;;;;-0.73;72.60;98363.98;1739271;82;22157;-71
2021/01/14 00:45:31;;;;;;;18.60;12.47;;;;;;;-0.74;72.74;98362.36;1739354;82;21144;-72
2021/01/14 00:48:01;;;;;;;16.80;11.00;;;;;;;-0.68;72.79;98359.40;1739843;82;21073;-73
2021/01/14 00:50:29;;;;;;;18.60;11.53;;;;;;;-0.64;72.85;98353.99;1739947;82;22206;-71
2021/01/14 00:52:56;;;;;;;18.30;12.53;;;;;;;-0.61;72.67;98349.59;1739706;82;21629;-73
2021/01/14 00:55:23;;;;;;;20.83;14.03;;;;;;;-0.57;72.65;98353.43;1739940;82;21946;-75
2021/01/14 00:57:51;;;;;;;20.50;13.70;;;;;;;-0.53;72.59;98350.70;1739628;82;21049;-80
2021/01/14 01:00:21;;;;;;;19.67;13.40;;;;;;;-0.49;72.48;98351.88;1712436;82;21121;-70
2021/01/14 01:02:52;;;;;;;35.13;16.87;;;;;;;-0.46;72.49;98356.23;1739632;82;21168;-68
2021/01/14 01:05:20;;;;;;;19.77;13.10;;;;;;;-0.44;72.35;98350.73;1739919;82;21177;-77
2021/01/14 01:07:50;;;;;;;19.10;11.67;;;;;;;-0.43;72.36;98354.98;1739011;81;21501;-70
2021/01/14 01:10:19;;;;;;;17.77;11.97;;;;;;;-0.40;72.29;98354.57;1735259;82;21153;-72
2021/01/14 01:12:56;;;;;;;17.73;12.20;;;;;;;-0.38;72.12;98353.83;1735410;82;21630;-70
2021/01/14 01:15:27;;;;;;;19.30;12.67;;;;;;;-0.44;72.07;98353.38;1734942;82;21137;-70
2021/01/14 01:17:54;;;;;;;17.57;12.20;;;;;;;-0.48;72.04;98354.29;1736742;82;21137;-70
2021/01/14 01:20:22;;;;;;;18.30;13.73;;;;;;;-0.49;72.13;98361.94;1737456;82;21792;-70
2021/01/14 01:22:49;;;;;;;18.13;11.83;;;;;;;-0.53;72.25;98364.67;1707557;82;21026;-70
2021/01/14 01:25:17;;;;;;;14.83;10.53;;;;;;;-0.54;72.17;98373.64;1706066;84;21630;-70
2021/01/14 01:27:45;;;;;;;16.10;11.70;;;;;;;-0.60;72.33;98381.58;1682800;83;21156;-72
2021/01/14 01:30:14;;;;;;;18.27;12.67;;;;;;;-0.60;72.57;98384.22;1733331;82;21262;-71
2021/01/14 01:32:42;;;;;;;18.77;11.27;;;;;;;-0.56;72.67;98378.81;1733929;82;22271;-70
2021/01/14 01:35:11;;;;;;;15.93;10.00;;;;;;;-0.57;72.54;98382.47;1711548;82;21234;-69
2021/01/14 01:37:39;;;;;;;17.23;11.70;;;;;;;-0.68;72.48;98377.37;1734774;82;21107;-71
2021/01/14 01:40:09;;;;;;;17.67;10.97;;;;;;;-0.81;72.83;98380.55;1733746;82;21209;-72
2021/01/14 01:42:38;;;;;;;17.67;10.93;;;;;;;-0.80;73.16;98379.03;1693125;83;21247;-71
2021/01/14 01:45:08;;;;;;;14.90;10.23;;;;;;;-0.80;73.14;98372.94;1705486;84;22213;-74
2021/01/14 01:47:37;;;;;;;18.07;11.93;;;;;;;-0.79;73.31;98375.38;1704700;84;21646;-71
2021/01/14 01:50:06;;;;;;;15.07;11.03;;;;;;;-0.92;73.30;98372.29;1705744;84;21160;-73
2021/01/14 01:52:34;;;;;;;18.33;11.40;;;;;;;-0.91;73.60;98375.20;1717577;82;21180;-71
2021/01/14 01:55:05;;;;;;;13.30;10.40;;;;;;;-0.83;73.61;98379.96;1681229;84;21196;-72
2021/01/14 01:57:34;;;;;;;19.70;11.13;;;;;;;-0.77;73.60;98381.77;1705237;84;21390;-73
2021/01/14 02:00:03;;;;;;;16.10;11.67;;;;;;;-0.76;73.40;98382.05;1708440;82;21216;-74
2021/01/14 02:02:31;;;;;;;18.47;12.53;;;;;;;-0.73;73.43;98385.10;1727716;82;20959;-68
2021/01/14 02:04:59;;;;;;;14.17;10.93;;;;;;;-0.70;73.48;98383.86;1735822;82;21200;-71
2021/01/14 02:07:50;;;;;;;15.33;10.53;;;;;;;-0.65;73.40;98384.05;1735309;82;21153;-70
2021/01/14 02:10:38;;;;;;;17.67;11.67;;;;;;;-0.71;73.20;98387.00;1735202;82;22528;-70
2021/01/14 02:13:37;;;;;;;20.70;12.97;;;;;;;-0.74;73.33;98387.44;1739591;82;21559;-72
2021/01/14 02:16:05;;;;;;;16.50;11.57;;;;;;;-0.71;73.39;98390.97;1739528;82;21578;-69
2021/01/14 02:18:34;;;;;;;12.83;9.17;;;;;;;-0.66;73.36;98383.23;1739623;82;21683;-70
2021/01/14 02:21:07;;;;;;;17.27;11.97;;;;;;;-0.67;73.23;98380.28;1740067;82;21156;-70
2021/01/14 02:24:13;;;;;;;14.30;10.18;;;;;;;-0.69;73.37;98387.62;1740162;82;21369;-69
2021/01/14 02:26:41;;;;;;;18.13;11.37;;;;;;;-0.65;73.35;98379.58;1735435;82;21144;-71
2021/01/14 02:29:10;;;;;;;15.90;11.57;;;;;;;-0.67;73.31;98374.22;1707654;82;21625;-70
2021/01/14 02:31:37;;;;;;;21.17;13.33;;;;;;;-0.62;73.37;98378.33;1739411;82;21120;-70
2021/01/14 02:34:05;;;;;;;17.63;11.13;;;;;;;-0.58;73.22;98379.05;1739547;82;21168;-68
2021/01/14 02:36:32;;;;;;;20.17;11.07;;;;;;;-0.56;73.18;98378.81;1739480;82;21648;-69
2021/01/14 02:38:59;;;;;;;19.90;12.10;;;;;;;-0.50;73.13;98380.12;1739459;82;21025;-69
2021/01/14 02:41:26;;;;;;;17.53;12.67;;;;;;;-0.46;73.09;98381.81;1739393;82;20990;-70
2021/01/14 02:43:54;;;;;;;19.33;13.00;;;;;;;-0.44;72.99;98379.79;1740343;82;21569;-69
2021/01/14 02:46:21;;;;;;;15.40;10.50;;;;;;;-0.47;72.91;98378.36;1739992;82;21154;-68
2021/01/14 02:49:09;;;;;;;14.43;10.43;;;;;;;-0.48;72.90;98378.05;1739624;82;21196;-70
2021/01/14 02:51:51;;;;;;;15.30;10.77;;;;;;;-0.55;72.77;98381.77;1710437;83;21623;-68
2021/01/14 02:54:18;;;;;;;15.30;11.12;;;;;;;-0.66;73.00;98382.42;1710669;82;21150;-67
2021/01/14 02:56:50;;;;;;;17.77;11.73;;;;;;;-0.66;73.26;98387.19;1714189;82;21121;-67
2021/01/14 02:59:17;;;;;;;14.53;9.83;;;;;;;-0.64;73.26;98383.03;1720899;82;21215;-67
2021/01/14 03:01:46;;;;;;;17.13;11.50;;;;;;;-0.61;73.14;98377.31;1731198;82;21388;-68
2021/01/14 03:04:15;;;;;;;15.53;11.40;;;;;;;-0.61;73.07;98376.00;1739947;82;21201;-67
2021/01/14 03:06:43;;;;;;;17.07;11.67;;;;;;;-0.58;72.97;98376.92;1739731;81;21555;-68
2021/01/14 03:09:12;;;;;;;14.73;11.57;;;;;;;-0.55;72.90;98369.88;1739513;81;21158;-69
2021/01/14 03:11:40;;;;;;;16.70;12.23;;;;;;;-0.63;72.75;98362.22;1739477;82;21578;-69
2021/01/14 03:14:08;;;;;;;19.17;11.93;;;;;;;-0.77;73.02;98369.39;1739463;82;21261;-68
2021/01/14 03:16:38;;;;;;;16.10;11.33;;;;;;;-0.92;73.39;98364.88;1739278;82;21136;-69
2021/01/14 03:19:06;;;;;;;14.23;9.47;;;;;;;-1.03;73.81;98365.02;1739787;82;21049;-68
2021/01/14 03:21:33;;;;;;;12.40;8.90;;;;;;;-1.07;74.23;98364.32;1739969;81;21586;-68
2021/01/14 03:24:02;;;;;;;16.10;11.07;;;;;;;-1.12;74.47;98362.81;1740000;82;21767;-67
2021/01/14 03:26:29;;;;;;;15.10;9.13;;;;;;;-1.18;74.75;98367.08;1740437;82;21397;-67
2021/01/14 03:28:57;;;;;;;15.70;10.97;;;;;;;-1.23;74.99;98369.53;1740687;82;21157;-68
2021/01/14 03:31:26;;;;;;;12.33;8.27;;;;;;;-1.30;75.26;98375.84;1735737;82;21216;-68
2021/01/14 03:33:54;;;;;;;13.30;9.53;;;;;;;-1.34;75.64;98367.01;1704185;83;21144;-69
2021/01/14 03:36:22;;;;;;;13.10;9.10;;;;;;;-1.43;75.97;98376.66;1715036;82;21640;-68
2021/01/14 03:38:50;;;;;;;17.17;11.20;;;;;;;-1.53;76.36;98379.72;1739719;80;21215;-67
2021/01/14 03:41:19;;;;;;;14.30;9.87;;;;;;;-1.62;76.88;98380.13;1724329;82;21160;-67
2021/01/14 03:43:47;;;;;;;20.33;9.93;;;;;;;-1.71;77.27;98381.36;1710179;83;21172;-67
2021/01/14 03:46:17;;;;;;;15.27;11.40;;;;;;;-1.75;77.64;98384.91;1712501;82;21132;-69
2021/01/14 03:48:46;;;;;;;15.23;11.50;;;;;;;-1.77;77.83;98385.11;1739854;82;21551;-68
2021/01/14 03:51:21;;;;;;;19.93;14.53;;;;;;;-1.68;78.02;98382.29;1739967;82;21213;-68
2021/01/14 03:53:51;;;;;;;19.33;13.07;;;;;;;-1.51;78.11;98383.48;1739996;82;21551;-68
2021/01/14 03:56:19;;;;;;;22.00;16.17;;;;;;;-1.42;77.87;98377.78;1739655;81;21154;-68
2021/01/14 03:58:46;;;;;;;25.57;16.93;;;;;;;-1.40;77.78;98373.64;1739315;82;21662;-67
2021/01/14 04:01:15;;;;;;;23.60;17.00;;;;;;;-1.40;77.96;98371.81;1738458;81;21129;-68
2021/01/14 04:03:43;;;;;;;37.80;24.37;;;;;;;-1.40;78.09;98371.81;1739918;82;21280;-67
2021/01/14 04:06:11;;;;;;;37.03;22.27;;;;;;;-1.39;78.17;98372.09;1739892;82;21201;-68
2021/01/14 04:08:40;;;;;;;32.73;19.60;;;;;;;-1.40;78.39;98375.77;1741000;81;21118;-71
2021/01/14 04:11:12;;;;;;;27.33;16.43;;;;;;;-1.38;78.56;98380.31;1766182;81;21113;-70
2021/01/14 04:13:41;;;;;;;35.93;21.00;;;;;;;-1.37;78.73;98374.03;1765348;81;21146;-69
2021/01/14 04:16:18;;;;;;;35.03;16.83;;;;;;;-1.39;78.77;98376.05;1762815;81;21254;-68
2021/01/14 04:18:46;;;;;;;25.60;16.90;;;;;;;-1.35;78.90;98369.87;1760660;81;21137;-67
2021/01/14 04:21:15;;;;;;;21.97;16.40;;;;;;;-1.38;78.82;98371.59;1764772;81;21148;-69
2021/01/14 04:23:43;;;;;;;29.20;18.27;;;;;;;-1.42;78.87;98369.87;1763651;81;21190;-69
2021/01/14 04:26:12;;;;;;;25.93;17.57;;;;;;;-1.47;78.87;98373.63;1762453;81;21585;-68
2021/01/14 04:28:40;;;;;;;28.73;17.23;;;;;;;-1.44;79.11;98368.48;1762223;81;21444;-68
2021/01/14 04:31:11;;;;;;;23.03;15.60;;;;;;;-1.40;79.08;98373.12;1759058;81;21600;-68
2021/01/14 04:33:42;;;;;;;20.13;12.90;;;;;;;-1.35;79.07;98375.15;1710383;81;21127;-68
2021/01/14 04:36:10;;;;;;;23.73;15.97;;;;;;;-1.36;79.05;98367.74;1759629;81;21102;-68
2021/01/14 04:38:38;;;;;;;30.50;17.20;;;;;;;-1.38;79.06;98373.72;1760212;81;21148;-68
2021/01/14 04:41:06;;;;;;;22.67;14.23;;;;;;;-1.38;79.04;98376.86;1764712;81;21626;-69
2021/01/14 04:43:34;;;;;;;21.50;14.93;;;;;;;-1.35;78.98;98383.06;1764557;81;21580;-69
2021/01/14 04:46:08;;;;;;;29.20;17.30;;;;;;;-1.36;78.90;98386.20;1740937;81;21164;-67
2021/01/14 04:48:39;;;;;;;32.30;18.17;;;;;;;-1.32;78.85;98393.19;1763821;81;21571;-68
2021/01/14 04:51:19;;;;;;;30.62;18.65;;;;;;;-1.32;78.79;98394.00;1762090;81;21132;-69
2021/01/14 04:53:50;;;;;;;27.83;17.03;;;;;;;-1.29;78.83;98391.98;1764783;81;22307;-67
2021/01/14 04:56:19;;;;;;;23.90;13.70;;;;;;;-1.28;78.73;98392.25;1764594;81;21113;-68
2021/01/14 04:58:48;;;;;;;22.53;16.33;;;;;;;-1.30;78.63;98392.98;1761501;81;21634;-70
2021/01/14 05:01:25;;;;;;;23.07;14.90;;;;;;;-1.34;78.60;98396.02;1762673;80;21116;-68
2021/01/14 05:03:53;;;;;;;23.63;17.33;;;;;;;-1.33;78.55;98396.83;1764703;81;21128;-67
2021/01/14 05:06:23;;;;;;;20.57;13.83;;;;;;;-1.32;78.60;98390.05;1731415;81;21510;-68
2021/01/14 05:08:59;;;;;;;18.63;13.07;;;;;;;-1.25;78.58;98386.09;1764580;81;21249;-67
2021/01/14 05:11:28;;;;;;;23.77;15.53;;;;;;;-1.23;78.53;98385.35;1731463;81;21117;-70
2021/01/14 05:13:56;;;;;;;25.07;17.47;;;;;;;-1.24;78.38;98382.91;1718777;82;21185;-69
2021/01/14 05:16:24;;;;;;;21.73;15.27;;;;;;;-1.27;78.35;98382.83;1718510;82;21149;-71
2021/01/14 05:18:52;;;;;;;27.80;17.17;;;;;;;-1.25;78.37;98383.95;1728535;82;22339;-70
2021/01/14 05:21:20;;;;;;;19.80;13.37;;;;;;;-1.23;78.37;98380.08;1758847;81;21147;-69
2021/01/14 05:23:48;;;;;;;25.83;17.23;;;;;;;-1.19;78.32;98373.37;1742869;82;21120;-69
2021/01/14 05:26:30;;;;;;;37.23;22.13;;;;;;;-1.16;78.30;98378.25;1741969;82;21141;-73
2021/01/14 05:28:59;;;;;;;42.73;24.30;;;;;;;-1.13;78.21;98385.73;1713780;83;21060;-69
2021/01/14 05:31:27;;;;;;;54.77;29.00;;;;;;;-1.21;78.40;98379.88;1736991;81;21312;-70
2021/01/14 05:33:59;;;;;;;44.20;25.93;;;;;;;-1.28;78.59;98385.66;1744110;82;20919;-68
2021/01/14 05:36:29;;;;;;;45.13;26.87;;;;;;;-1.30;78.88;98381.94;1745649;81;21112;-70
2021/01/14 05:38:58;;;;;;;34.00;21.50;;;;;;;-1.38;79.01;98386.91;1724306;82;21058;-69
2021/01/14 05:41:28;;;;;;;42.87;26.90;;;;;;;-1.45;79.34;98389.26;1713504;83;21076;-70
2021/01/14 05:44:00;;;;;;;40.33;27.67;;;;;;;-1.45;79.54;98391.39;1715016;82;21625;-68
2021/01/14 05:46:32;;;;;;;30.17;20.30;;;;;;;-1.41;79.61;98387.33;1743177;82;21145;-71
2021/01/14 05:49:02;;;;;;;44.88;28.57;;;;;;;-1.39;79.71;98387.13;1743403;82;21145;-69
2021/01/14 05:51:32;;;;;;;41.23;25.93;;;;;;;-1.35;79.91;98391.78;1743193;82;21554;-71
2021/01/14 05:54:08;;;;;;;45.80;26.53;;;;;;;-1.31;79.90;98386.91;1743233;82;21200;-70
2021/01/14 05:56:50;;;;;;;27.73;16.33;;;;;;;-1.26;79.81;98384.96;1743262;82;21454;-69
2021/01/14 05:59:19;;;;;;;33.63;20.67;;;;;;;-1.24;79.79;98389.50;1743157;82;21566;-70
2021/01/14 06:02:01;;;;;;;35.27;19.53;;;;;;;-1.24;79.78;98382.91;1742875;82;21104;-71
2021/01/14 06:04:29;;;;;;;57.93;31.07;;;;;;;-1.28;79.75;98389.62;1742944;82;21136;-68
2021/01/14 06:09:41;;;;;;;61.47;34.27;;;;;;;-1.23;79.94;98391.95;1840072;77;26470;-75
2021/01/14 06:12:10;;;;;;;52.50;30.23;;;;;;;-1.26;80.08;98391.05;1820882;78;21582;-70
2021/01/14 06:14:40;;;;;;;37.43;25.37;;;;;;;-1.23;80.07;98390.63;1753450;81;21388;-69
2021/01/14 06:17:16;;;;;;;43.03;25.93;;;;;;;-1.18;80.00;98384.23;1757998;81;20983;-70
2021/01/14 06:19:45;;;;;;;34.97;23.53;;;;;;;-1.18;79.91;98382.91;1751067;80;21027;-69
2021/01/14 06:22:16;;;;;;;39.40;23.57;;;;;;;-1.18;79.82;98392.64;1731266;80;21053;-70
2021/01/14 06:24:44;;;;;;;39.53;25.40;;;;;;;-1.21;79.87;98393.88;1769251;80;21039;-70
2021/01/14 06:27:13;;;;;;;32.13;19.33;;;;;;;-1.24;79.93;98397.41;1739205;81;21995;-71
2021/01/14 06:29:44;;;;;;;33.27;18.47;;;;;;;-1.23;80.11;98400.36;1758462;81;21035;-70
2021/01/14 06:32:14;;;;;;;43.13;24.63;;;;;;;-1.22;80.15;98402.80;1758654;81;20960;-74
2021/01/14 06:34:47;;;;;;;33.13;16.33;;;;;;;-1.24;80.20;98400.05;1758525;81;21552;-71
2021/01/14 06:37:18;;;;;;;;;;;;;;;-1.19;80.40;98405.02;1761144;81;21114;-68
2021/01/14 06:39:49;;;;;;;25.27;15.50;;;;;;;-1.11;81.61;98396.91;1765344;80;21213;-69
2021/01/14 06:42:29;;;;;;;26.57;17.10;;;;;;;-1.01;82.08;98401.75;1762564;80;21591;-69
2021/01/14 06:45:05;;;;;;;32.93;18.80;;;;;;;-1.00;81.65;98396.75;1734886;82;21122;-68
2021/01/14 06:47:46;;;;;;;24.50;15.70;;;;;;;-1.01;81.18;98396.47;1705379;84;21251;-70
2021/01/14 06:50:21;;;;;;;25.77;16.03;;;;;;;-1.02;80.96;98396.16;1742000;81;21141;-70
2021/01/14 06:53:13;;;;;;;28.83;19.37;;;;;;;-1.06;80.72;98394.46;1780936;80;22131;-70
2021/01/14 06:55:41;;;;;;;27.20;16.70;;;;;;;-1.07;80.53;98400.75;1783295;80;21206;-68
2021/01/14 06:58:12;;;;;;;41.53;24.50;;;;;;;-1.02;80.83;98404.89;1754217;81;21173;-68
2021/01/14 07:00:45;;;;;;;41.10;25.53;;;;;;;-1.01;80.57;98399.89;1737017;81;21058;-68
2021/01/14 07:03:20;;;;;;;53.03;32.57;;;;;;;-0.94;80.78;98397.25;1784732;80;21152;-69
2021/01/14 07:05:59;;;;;;;46.57;30.37;;;;;;;-0.90;80.51;98399.27;1756914;81;22282;-70
2021/01/14 07:08:59;;;;;;;51.53;27.13;;;;;;;-1.00;79.90;98404.16;1786517;80;21031;-68
2021/01/14 07:11:30;;;;;;;37.03;24.53;;;;;;;-1.09;79.95;98412.00;1748813;81;21032;-68
2021/01/14 07:13:57;;;;;;;43.47;25.20;;;;;;;-1.12;80.08;98414.25;1760124;81;21003;-71
2021/01/14 07:16:25;;;;;;;36.13;25.00;;;;;;;-1.05;80.28;98423.76;1757519;81;21141;-71
2021/01/14 07:18:55;;;;;;;39.60;26.37;;;;;;;-0.96;80.05;98413.27;1789026;79;21371;-67
2021/01/14 07:21:43;;;;;;;41.03;26.13;;;;;;;-0.92;79.74;98405.78;1742542;81;21062;-66
2021/01/14 07:24:26;;;;;;;46.67;28.63;;;;;;;-0.90;79.60;98414.28;1789011;79;22288;-67
2021/01/14 07:27:01;;;;;;;43.03;22.63;;;;;;;-0.93;79.67;98422.12;1769029;80;21019;-69
2021/01/14 07:29:31;;;;;;;45.23;27.57;;;;;;;-0.84;79.70;98420.05;1759045;80;21146;-70
2021/01/14 07:31:59;;;;;;;37.10;24.40;;;;;;;-0.82;79.50;98423.31;1762392;80;21483;-67
2021/01/14 07:34:44;;;;;;;37.77;24.67;;;;;;;-0.83;79.39;98422.19;1771301;80;21072;-69
2021/01/14 07:37:13;;;;;;;30.63;19.83;;;;;;;-0.83;79.47;98421.68;1759505;81;21157;-68
2021/01/14 07:39:54;;;;;;;26.70;18.27;;;;;;;-0.83;79.44;98420.87;1761231;80;21205;-69
2021/01/14 07:42:29;;;;;;;20.30;14.40;;;;;;;-0.90;79.50;98420.38;1779828;80;21026;-69
2021/01/14 07:45:06;;;;;;;22.60;14.43;;;;;;;-1.00;79.67;98425.77;1784408;80;21381;-67
2021/01/14 07:47:37;;;;;;;22.57;14.43;;;;;;;-1.06;79.86;98435.34;1751101;81;21007;-69
2021/01/14 07:50:26;;;;;;;25.40;15.23;;;;;;;-1.14;80.11;98437.38;1767238;80;21266;-67
2021/01/14 07:52:56;;;;;;;21.27;15.33;;;;;;;-1.20;80.38;98432.94;1726503;82;21145;-69
2021/01/14 07:55:32;;;;;;;30.43;18.30;;;;;;;-1.23;80.82;98435.47;1750260;80;21224;-69
2021/01/14 07:58:21;;;;;;;29.87;18.00;;;;;;;-1.28;81.46;98438.41;1703375;82;21226;-69
2021/01/14 08:01:07;;;;;;;38.30;23.07;;;;;;;-1.34;81.63;98443.48;1728820;81;21014;-70
2021/01/14 08:03:43;;;;;;;37.30;25.13;;;;;;;-1.39;82.02;98444.59;1730051;81;21614;-69
2021/01/14 08:06:24;;;;;;;29.13;18.37;;;;;;;-1.43;82.17;98449.17;1735179;81;21133;-67
2021/01/14 08:09:09;;;;;;;32.20;19.70;;;;;;;-1.36;82.36;98450.80;1754829;81;21208;-68
2021/01/14 08:11:45;;;;;;;32.60;21.40;;;;;;;-1.33;82.22;98450.89;1745956;82;21202;-70
2021/01/14 08:14:21;;;;;;;35.33;21.50;;;;;;;-1.37;82.33;98453.13;1719124;82;21046;-69
2021/01/14 08:16:53;;;;;;;25.47;15.93;;;;;;;-1.36;82.48;98456.58;1740157;82;21205;-69
2021/01/14 08:19:33;;;;;;;34.50;21.37;;;;;;;-1.36;82.54;98454.76;1719468;82;21050;-68
2021/01/14 08:22:10;;;;;;;35.00;20.73;;;;;;;-1.37;82.80;98454.45;1720259;82;21137;-69
2021/01/14 08:25:02;;;;;;;48.43;26.97;;;;;;;-1.32;82.87;98457.79;1686092;85;21282;-69
2021/01/14 08:27:36;;;;;;;37.70;20.23;;;;;;;-1.33;82.88;98456.98;1687198;84;21014;-66
2021/01/14 08:30:16;;;;;;;46.70;24.73;;;;;;;-1.32;82.95;98457.79;1712513;83;21164;-69
2021/01/14 08:32:49;;;;;;;37.93;22.57;;;;;;;-1.30;83.06;98453.13;1672015;85;21674;-68
2021/01/14 08:35:30;;;;;;;38.13;23.07;;;;;;;-1.29;83.14;98456.05;1692889;83;21191;-69
2021/01/14 08:38:00;;;;;;;35.20;22.93;;;;;;;-1.25;83.30;98451.20;1685381;85;21452;-68
2021/01/14 08:40:31;;;;;;;36.97;23.77;;;;;;;-1.23;83.26;98456.56;1688812;83;21144;-70
2021/01/14 08:43:14;;;;;;;40.23;25.00;;;;;;;-1.20;83.28;98446.13;1673801;84;21046;-70
2021/01/14 08:45:51;;;;;;;35.80;18.73;;;;;;;-1.14;83.28;98454.52;1655798;86;21153;-70
2021/01/14 08:48:30;;;;;;;31.30;18.60;;;;;;;-1.07;83.21;98451.38;1671899;85;21376;-69
2021/01/14 08:51:01;;;;;;;35.30;23.43;;;;;;;-1.05;83.04;98450.64;1685567;84;21413;-68
2021/01/14 08:53:37;;;;;;;27.20;18.50;;;;;;;-1.05;83.06;98458.55;1697774;83;21265;-69
2021/01/14 08:56:07;;;;;;;30.70;18.43;;;;;;;-1.04;83.04;98457.04;1696773;84;21666;-68
2021/01/14 08:58:43;;;;;;;27.87;19.07;;;;;;;-1.03;83.02;98453.39;1700031;84;21082;-68
2021/01/14 09:01:24;;;;;;;27.70;17.87;;;;;;;-1.03;83.03;98442.03;1699713;84;21177;-68
2021/01/14 09:03:54;;;;;;;42.90;25.23;;;;;;;-0.98;83.13;98452.77;1675120;84;21423;-70
2021/01/14 09:06:38;;;;;;;32.63;21.17;;;;;;;-0.92;83.30;98454.59;1685392;84;21169;-68
2021/01/14 09:09:10;;;;;;;34.93;22.80;;;;;;;-0.83;83.17;98441.98;1707864;83;21124;-70
2021/01/14 09:11:39;;;;;;;33.67;25.57;;;;;;;-0.90;82.92;98449.91;1741606;81;21144;-68
2021/01/14 09:14:13;;;;;;;43.90;26.00;;;;;;;-0.92;83.04;98454.59;1754989;81;21141;-67
2021/01/14 09:16:44;;;;;;;29.90;19.03;;;;;;;-0.96;82.98;98445.47;1729800;81;21202;-69
2021/01/14 09:19:20;;;;;;;32.33;19.60;;;;;;;-0.90;83.14;98445.44;1753753;81;21213;-68
2021/01/14 09:21:48;;;;;;;25.00;17.93;;;;;;;-0.87;83.00;98437.63;1752788;81;21117;-73
2021/01/14 09:24:18;;;;;;;35.13;22.50;;;;;;;-0.86;82.93;98441.09;1755742;81;20991;-70
2021/01/14 09:26:49;;;;;;;37.87;23.83;;;;;;;-0.94;82.93;98441.59;1698012;83;21199;-71
2021/01/14 09:29:21;;;;;;;52.40;29.13;;;;;;;-0.99;82.97;98439.27;1729476;83;21390;-68
2021/01/14 09:31:50;;;;;;;33.13;22.85;;;;;;;-1.06;83.31;98439.30;1738275;81;21172;-68
2021/01/14 09:34:18;;;;;;;43.40;24.30;;;;;;;-1.05;83.59;98444.05;1744743;81;21101;-70
2021/01/14 09:36:47;;;;;;;33.30;21.97;;;;;;;-1.02;83.42;98442.33;1680645;81;21219;-70
2021/01/14 09:39:15;;;;;;;39.73;23.17;;;;;;;-1.00;83.50;98440.28;1735177;81;21183;-69
2021/01/14 09:41:42;;;;;;;39.60;24.00;;;;;;;-0.99;83.46;98441.91;1735565;81;21622;-71
2021/01/14 09:44:15;;;;;;;31.00;20.30;;;;;;;-0.97;83.45;98443.84;1759637;81;21018;-70
2021/01/14 09:46:47;;;;;;;42.57;28.80;;;;;;;-0.97;83.41;98441.20;1736848;81;21658;-68
2021/01/14 09:49:21;;;;;;;34.80;24.90;;;;;;;-0.98;83.50;98438.27;1729563;83;21204;-68
2021/01/14 09:51:51;;;;;;;34.13;23.30;;;;;;;-1.05;83.45;98442.22;1698565;83;21173;-69
2021/01/14 09:54:20;;;;;;;35.63;21.43;;;;;;;-0.99;83.66;98435.31;1732650;81;21252;-68
2021/01/14 09:56:54;;;;;;;35.97;27.40;;;;;;;-0.95;83.36;98433.38;1734693;81;21200;-68
2021/01/14 09:59:40;;;;;;;44.17;32.33;;;;;;;-0.93;83.45;98425.27;1751617;81;21228;-68
2021/01/14 10:02:28;;;;;;;40.43;26.90;;;;;;;-0.92;83.30;98429.53;1739707;81;21141;-70
2021/01/14 10:05:02;;;;;;;39.20;25.97;;;;;;;-0.97;83.33;98431.47;1755618;81;21653;-71
2021/01/14 10:07:36;;;;;;;38.23;24.67;;;;;;;-0.99;83.37;98430.85;1726523;82;21340;-68
2021/01/14 10:10:07;;;;;;;38.83;25.03;;;;;;;-0.97;83.47;98426.70;1754094;81;21181;-67
2021/01/14 10:12:35;;;;;;;36.97;23.13;;;;;;;-0.95;83.57;98426.78;1718152;81;21014;-64
2021/01/14 10:15:13;;;;;;;40.00;27.80;;;;;;;-0.93;83.65;98421.30;1739029;81;21026;-65
2021/01/14 10:17:41;;;;;;;43.63;26.20;;;;;;;-0.92;83.61;98418.47;1726557;81;21180;-65
2021/01/14 10:20:12;;;;;;;42.37;27.00;;;;;;;-0.90;83.64;98416.92;1725714;83;21132;-64
2021/01/14 10:22:52;;;;;;;54.03;32.77;;;;;;;-0.86;83.66;98416.80;1725673;83;21152;-63
2021/01/14 10:25:22;;;;;;;52.57;33.73;;;;;;;-0.84;83.65;98408.69;1745849;81;21634;-64
2021/01/14 10:28:07;;;;;;;42.93;25.70;;;;;;;-0.78;83.62;98415.27;1726032;81;21062;-65
2021/01/14 10:30:40;;;;;;;43.60;24.57;;;;;;;-0.75;83.44;98412.71;1726077;81;21113;-65
2021/01/14 10:33:09;;;;;;;37.53;23.37;;;;;;;-0.83;83.16;98407.17;1743002;81;21941;-65
2021/01/14 10:35:37;;;;;;;44.50;26.30;;;;;;;-0.83;83.43;98408.48;1748766;81;21131;-66
2021/01/14 10:38:13;;;;;;;49.30;30.53;;;;;;;-0.80;83.57;98415.98;1756574;81;21133;-63
2021/01/14 10:40:47;;;;;;;38.13;21.13;;;;;;;-0.79;83.32;98406.23;1755786;81;21196;-65
2021/01/14 10:43:34;;;;;;;31.03;20.53;;;;;;;-0.84;83.29;98397.62;1752558;81;21583;-66
2021/01/14 10:46:04;;;;;;;40.87;23.73;;;;;;;-0.87;83.39;98407.29;1747215;81;21678;-66
2021/01/14 10:48:38;;;;;;;32.80;20.73;;;;;;;-0.93;83.47;98399.69;1741547;81;21231;-66
2021/01/14 10:51:07;;;;;;;42.33;28.60;;;;;;;-0.93;83.58;98406.80;1725613;83;21034;-67
2021/01/14 10:56:16;;;;;;;35.47;22.33;;;;;;;-0.86;83.75;98393.59;1808998;77;26769;-65
2021/01/14 10:58:43;;;;;;;35.47;23.43;;;;;;;-0.86;83.86;98395.69;1781381;80;20986;-65
2021/01/14 11:01:19;;;;;;;36.00;24.67;;;;;;;-0.85;83.68;98393.86;1766924;80;21394;-68
2021/01/14 11:03:50;;;;;;;33.77;19.93;;;;;;;-0.80;83.84;98390.09;1750368;82;21071;-63
2021/01/14 11:06:33;;;;;;;43.10;21.57;;;;;;;-0.78;83.57;98392.02;1750385;82;20987;-66
2021/01/14 11:09:05;;;;;;;40.38;25.60;;;;;;;-0.89;83.51;98382.42;1723138;82;20979;-65
2021/01/14 11:11:34;;;;;;;43.07;27.07;;;;;;;-0.93;83.72;98382.54;1750485;81;20979;-66
2021/01/14 11:14:02;;;;;;;43.30;28.83;;;;;;;-0.97;83.76;98383.16;1751060;80;21200;-66
2021/01/14 11:16:29;;;;;;;49.80;31.63;;;;;;;-1.02;83.90;98382.47;1750432;81;20999;-67
2021/01/14 11:18:58;;;;;;;41.57;27.33;;;;;;;-1.00;84.11;98376.96;1753653;80;21010;-64
2021/01/14 11:21:31;;;;;;;47.10;30.37;;;;;;;-0.95;84.23;98375.33;1751074;80;21184;-65
2021/01/14 11:24:01;;;;;;;40.20;28.60;;;;;;;-0.87;84.27;98376.13;1750496;82;21141;-66
2021/01/14 11:26:28;;;;;;;42.37;28.43;;;;;;;-0.86;84.13;98379.07;1750388;82;21822;-67
2021/01/14 11:28:57;;;;;;;45.67;27.40;;;;;;;-0.84;84.10;98373.88;1757724;80;21035;-63
2021/01/14 11:31:26;;;;;;;52.57;27.33;;;;;;;-0.82;84.08;98374.48;1766613;80;21102;-64
2021/01/14 11:33:54;;;;;;;38.53;24.07;;;;;;;-0.82;83.98;98379.77;1764605;80;21547;-67
2021/01/14 11:36:22;;;;;;;40.20;25.73;;;;;;;-0.80;84.03;98379.53;1780430;80;21152;-65
2021/01/14 11:38:50;;;;;;;28.97;21.37;;;;;;;-0.79;83.93;98371.41;1773294;80;21817;-64
2021/01/14 11:41:20;;;;;;;36.27;22.07;;;;;;;-0.79;83.89;98375.88;1762723;80;21627;-66
2021/01/14 11:43:48;;;;;;;50.37;31.77;;;;;;;-0.79;84.03;98375.88;1778909;80;21161;-64